Time,TemperatureF,DewpointF,PressureIn,WindDirection,WindDirectionDegrees,WindSpeedMPH,WindSpeedGustMPH,Humidity,HourlyPrecipIn,Conditions,Clouds,dailyrainin,SoftwareType,DateUTC
2013-06-20 00:00:00,52.9,44.2,29.95,North,0,0.0,0.0,72,0.00,,,0.00,WUHU216HW,2013-06-20 04:00:00,
2013-06-20 00:01:00,52.7,44.4,29.95,North,0,0.0,0.0,73,0.00,,,0.00,WUHU216HW,2013-06-20 04:01:00,
2013-06-20 00:02:00,52.7,44.4,29.95,North,0,0.0,0.0,73,0.00,,,0.00,WUHU216HW,2013-06-20 04:02:00,
2013-06-20 00:03:00,52.7,44.4,29.95,North,0,0.0,0.0,73,0.00,,,0.00,WUHU216HW,2013-06-20 04:03:00,
2013-06-20 00:08:00,52.6,44.2,29.95,North,0,0.0,0.0,73,0.00,,,0.00,WUHU216HW,2013-06-20 04:08:00,
2013-06-20 00:13:00,52.2,44.2,29.96,North,0,0.0,0.0,74,0.00,,,0.00,WUHU216HW,2013-06-20 04:13:00,
2013-06-20 00:19:00,52.2,44.2,29.95,North,0,0.0,0.0,74,0.00,,,0.00,WUHU216HW,2013-06-20 04:19:00,
2013-06-20 00:24:00,52.0,44.0,29.95,North,0,0.0,0.0,74,0.00,,,0.00,WUHU216HW,2013-06-20 04:24:00,
2013-06-20 00:29:00,51.8,44.2,29.95,North,0,0.0,0.0,75,0.00,,,0.00,WUHU216HW,2013-06-20 04:29:00,
2013-06-20 00:34:00,51.7,44.0,29.95,North,0,0.0,0.0,75,0.00,,,0.00,WUHU216HW,2013-06-20 04:34:00,
2013-06-20 00:39:00,51.5,43.8,29.95,North,0,0.0,0.0,75,0.00,,,0.00,WUHU216HW,2013-06-20 04:39:00,
2013-06-20 00:44:00,51.3,43.7,29.95,North,0,0.0,0.0,75,0.00,,,0.00,WUHU216HW,2013-06-20 04:44:00,
2013-06-20 00:49:00,50.9,43.3,29.95,North,0,0.0,0.0,75,0.00,,,0.00,WUHU216HW,2013-06-20 04:49:00,
2013-06-20 00:54:00,50.8,43.1,29.95,North,0,0.0,0.0,75,0.00,,,0.00,WUHU216HW,2013-06-20 04:54:00,
2013-06-20 00:59:00,50.8,43.5,29.95,North,0,0.0,0.0,76,0.00,,,0.00,WUHU216HW,2013-06-20 04:59:00,
2013-06-20 01:04:00,50.4,43.1,29.95,North,0,0.0,0.0,76,0.00,,,0.00,WUHU216HW,2013-06-20 05:04:00,
2013-06-20 01:09:00,50.2,42.9,29.95,North,0,0.0,0.0,76,0.00,,,0.00,WUHU216HW,2013-06-20 05:09:00,
2013-06-20 01:14:00,50.0,43.1,29.95,North,0,0.0,0.0,77,0.00,,,0.00,WUHU216HW,2013-06-20 05:14:00,
2013-06-20 01:19:00,50.0,43.1,29.95,North,0,0.0,0.0,77,0.00,,,0.00,WUHU216HW,2013-06-20 05:19:00,
2013-06-20 01:24:00,49.9,42.9,29.95,North,0,0.0,0.0,77,0.00,,,0.00,WUHU216HW,2013-06-20 05:24:00,
2013-06-20 01:30:00,49.7,42.8,29.95,North,0,0.0,0.0,77,0.00,,,0.00,WUHU216HW,2013-06-20 05:30:00,
2013-06-20 01:35:00,49.5,42.8,29.96,North,0,0.0,0.0,78,0.00,,,0.00,WUHU216HW,2013-06-20 05:35:00,
2013-06-20 01:40:00,49.3,42.7,29.96,North,0,0.0,0.0,78,0.00,,,0.00,WUHU216HW,2013-06-20 05:40:00,
2013-06-20 01:45:00,49.1,42.5,29.96,North,0,0.0,0.0,78,0.00,,,0.00,WUHU216HW,2013-06-20 05:45:00,
2013-06-20 01:50:00,49.0,42.3,29.96,North,0,0.0,0.0,78,0.00,,,0.00,WUHU216HW,2013-06-20 05:50:00,
2013-06-20 01:55:00,49.0,42.3,29.96,North,0,0.0,0.0,78,0.00,,,0.00,WUHU216HW,2013-06-20 05:55:00,
2013-06-20 02:00:00,48.8,42.1,29.96,North,0,0.0,0.0,78,0.00,,,0.00,WUHU216HW,2013-06-20 06:00:00,
2013-06-20 02:05:00,48.8,42.5,29.96,North,0,0.0,0.0,79,0.00,,,0.00,WUHU216HW,2013-06-20 06:05:00,
2013-06-20 02:10:00,48.6,42.3,29.97,North,0,0.0,0.0,79,0.00,,,0.00,WUHU216HW,2013-06-20 06:10:00,
2013-06-20 02:15:00,48.6,42.3,29.96,North,0,0.0,0.0,79,0.00,,,0.00,WUHU216HW,2013-06-20 06:15:00,
2013-06-20 02:20:00,48.4,42.1,29.97,North,0,0.0,0.0,79,0.00,,,0.00,WUHU216HW,2013-06-20 06:20:00,
2013-06-20 02:25:00,48.2,41.9,29.97,North,0,0.0,0.0,79,0.00,,,0.00,WUHU216HW,2013-06-20 06:25:00,
2013-06-20 02:30:00,48.2,41.9,29.97,North,0,0.0,0.0,79,0.00,,,0.00,WUHU216HW,2013-06-20 06:30:00,
2013-06-20 02:35:00,48.1,42.1,29.97,North,0,0.0,0.0,80,0.00,,,0.00,WUHU216HW,2013-06-20 06:35:00,
2013-06-20 02:40:00,47.9,41.9,29.97,North,0,0.0,0.0,80,0.00,,,0.00,WUHU216HW,2013-06-20 06:40:00,
2013-06-20 02:45:00,47.9,41.9,29.97,North,0,0.0,0.0,80,0.00,,,0.00,WUHU216HW,2013-06-20 06:45:00,
2013-06-20 02:50:00,47.9,41.9,29.97,North,0,0.0,0.0,80,0.00,,,0.00,WUHU216HW,2013-06-20 06:50:00,
2013-06-20 02:56:00,47.7,41.9,29.97,North,0,0.0,0.0,80,0.00,,,0.00,WUHU216HW,2013-06-20 06:56:00,
2013-06-20 03:01:00,47.5,41.7,29.97,North,0,0.0,0.0,80,0.00,,,0.00,WUHU216HW,2013-06-20 07:01:00,
2013-06-20 03:06:00,47.5,41.7,29.97,North,0,0.0,0.0,80,0.00,,,0.00,WUHU216HW,2013-06-20 07:06:00,
2013-06-20 03:11:00,47.3,41.5,29.97,North,0,0.0,0.0,80,0.00,,,0.00,WUHU216HW,2013-06-20 07:11:00,
2013-06-20 03:16:00,47.2,41.3,29.97,North,0,0.0,0.0,80,0.00,,,0.00,WUHU216HW,2013-06-20 07:16:00,
2013-06-20 03:21:00,47.0,41.1,29.97,North,0,0.0,0.0,80,0.00,,,0.00,WUHU216HW,2013-06-20 07:21:00,
2013-06-20 03:26:00,47.0,41.1,29.97,North,0,0.0,0.0,80,0.00,,,0.00,WUHU216HW,2013-06-20 07:26:00,
2013-06-20 03:31:00,47.0,41.1,29.98,North,0,0.0,0.0,80,0.00,,,0.00,WUHU216HW,2013-06-20 07:31:00,
2013-06-20 03:36:00,46.8,41.3,29.97,North,0,0.0,0.0,81,0.00,,,0.00,WUHU216HW,2013-06-20 07:36:00,
2013-06-20 03:41:00,46.8,41.3,29.97,North,0,0.0,0.0,81,0.00,,,0.00,WUHU216HW,2013-06-20 07:41:00,
2013-06-20 03:47:00,46.8,41.3,29.98,North,0,0.0,0.0,81,0.00,,,0.00,WUHU216HW,2013-06-20 07:47:00,
2013-06-20 03:52:00,46.6,41.1,29.98,North,0,0.0,0.0,81,0.00,,,0.00,WUHU216HW,2013-06-20 07:52:00,
2013-06-20 03:57:00,46.4,41.0,29.98,North,0,0.0,0.0,81,0.00,,,0.00,WUHU216HW,2013-06-20 07:57:00,
2013-06-20 04:02:00,46.4,41.0,29.98,North,0,0.0,0.0,81,0.00,,,0.00,WUHU216HW,2013-06-20 08:02:00,
2013-06-20 04:07:00,46.4,41.0,29.98,North,0,0.0,0.0,81,0.00,,,0.00,WUHU216HW,2013-06-20 08:07:00,
2013-06-20 04:12:00,46.3,40.8,29.98,North,0,0.0,0.0,81,0.00,,,0.00,WUHU216HW,2013-06-20 08:12:00,
2013-06-20 04:17:00,46.3,40.8,29.98,North,0,0.0,0.0,81,0.00,,,0.00,WUHU216HW,2013-06-20 08:17:00,
2013-06-20 04:22:00,46.1,40.6,29.98,North,0,0.0,0.0,81,0.00,,,0.00,WUHU216HW,2013-06-20 08:22:00,
2013-06-20 04:27:00,46.1,40.6,29.98,North,0,0.0,0.0,81,0.00,,,0.00,WUHU216HW,2013-06-20 08:27:00,
2013-06-20 04:32:00,46.1,40.6,29.99,North,0,0.0,0.0,81,0.00,,,0.00,WUHU216HW,2013-06-20 08:32:00,
2013-06-20 04:37:00,45.9,40.4,29.99,North,0,0.0,0.0,81,0.00,,,0.00,WUHU216HW,2013-06-20 08:37:00,
2013-06-20 04:42:00,45.7,40.2,29.99,North,0,0.0,0.0,81,0.00,,,0.00,WUHU216HW,2013-06-20 08:42:00,
2013-06-20 04:47:00,45.5,40.1,29.99,North,0,0.0,0.0,81,0.00,,,0.00,WUHU216HW,2013-06-20 08:47:00,
2013-06-20 04:52:00,45.4,39.9,30.00,North,0,0.0,0.0,81,0.00,,,0.00,WUHU216HW,2013-06-20 08:52:00,
2013-06-20 04:57:00,45.4,40.2,30.00,North,0,0.0,0.0,82,0.00,,,0.00,WUHU216HW,2013-06-20 08:57:00,
2013-06-20 05:02:00,45.4,40.2,30.00,North,0,0.0,0.0,82,0.00,,,0.00,WUHU216HW,2013-06-20 09:02:00,
2013-06-20 05:07:00,45.4,40.2,30.00,North,0,0.0,0.0,82,0.00,,,0.00,WUHU216HW,2013-06-20 09:07:00,
2013-06-20 05:12:00,45.2,40.1,30.00,North,0,0.0,0.0,82,0.00,,,0.00,WUHU216HW,2013-06-20 09:12:00,
2013-06-20 05:17:00,45.2,40.1,30.00,North,0,0.0,0.0,82,0.00,,,0.00,WUHU216HW,2013-06-20 09:17:00,
2013-06-20 05:23:00,45.0,39.9,30.00,North,0,0.0,0.0,82,0.00,,,0.00,WUHU216HW,2013-06-20 09:23:00,
2013-06-20 05:28:00,45.0,39.9,30.00,North,0,0.0,0.0,82,0.00,,,0.00,WUHU216HW,2013-06-20 09:28:00,
2013-06-20 05:33:00,44.8,39.7,30.00,North,0,0.0,0.0,82,0.00,,,0.00,WUHU216HW,2013-06-20 09:33:00,
2013-06-20 05:38:00,44.8,40.0,30.00,North,0,0.0,0.0,83,0.00,,,0.00,WUHU216HW,2013-06-20 09:38:00,
2013-06-20 05:43:00,44.8,40.0,30.00,North,0,0.0,0.0,83,0.00,,,0.00,WUHU216HW,2013-06-20 09:43:00,
2013-06-20 05:48:00,45.0,40.1,30.01,North,0,0.0,0.0,83,0.00,,,0.00,WUHU216HW,2013-06-20 09:48:00,
2013-06-20 05:53:00,45.0,40.1,30.01,North,0,0.0,0.0,83,0.00,,,0.00,WUHU216HW,2013-06-20 09:53:00,
2013-06-20 05:58:00,45.0,40.1,30.01,North,0,0.0,0.0,83,0.00,,,0.00,WUHU216HW,2013-06-20 09:58:00,
2013-06-20 06:03:00,45.0,40.1,30.01,North,0,0.0,0.0,83,0.00,,,0.00,WUHU216HW,2013-06-20 10:03:00,
2013-06-20 06:08:00,45.0,40.5,30.01,North,0,0.0,0.0,84,0.00,,,0.00,WUHU216HW,2013-06-20 10:08:00,
2013-06-20 06:13:00,45.2,40.7,30.02,North,0,0.0,0.0,84,0.00,,,0.00,WUHU216HW,2013-06-20 10:13:00,
2013-06-20 06:18:00,45.2,40.7,30.02,North,0,0.0,0.0,84,0.00,,,0.00,WUHU216HW,2013-06-20 10:18:00,
2013-06-20 06:23:00,45.4,40.9,30.02,North,0,0.0,0.0,84,0.00,,,0.00,WUHU216HW,2013-06-20 10:23:00,
2013-06-20 06:28:00,45.5,41.1,30.02,North,0,0.0,0.0,84,0.00,,,0.00,WUHU216HW,2013-06-20 10:28:00,
2013-06-20 06:34:00,45.7,41.5,30.02,North,0,0.0,0.0,85,0.00,,,0.00,WUHU216HW,2013-06-20 10:34:00,
2013-06-20 06:39:00,45.7,41.5,30.02,North,0,0.0,0.0,85,0.00,,,0.00,WUHU216HW,2013-06-20 10:39:00,
2013-06-20 07:00:00,46.8,42.6,30.03,North,0,0.0,0.0,85,0.00,,,0.00,WUHU216HW,2013-06-20 11:00:00,
2013-06-20 07:05:00,47.0,42.8,30.03,North,0,0.0,0.0,85,0.00,,,0.00,WUHU216HW,2013-06-20 11:05:00,
2013-06-20 07:10:00,47.2,42.9,30.03,North,0,0.0,0.0,85,0.00,,,0.00,WUHU216HW,2013-06-20 11:10:00,
2013-06-20 07:15:00,47.3,43.0,30.03,North,0,0.0,0.0,85,0.00,,,0.00,WUHU216HW,2013-06-20 11:15:00,
2013-06-20 07:20:00,47.7,43.4,30.03,North,0,0.0,0.0,85,0.00,,,0.00,WUHU216HW,2013-06-20 11:20:00,
2013-06-20 07:25:00,47.9,43.6,30.03,North,0,0.0,0.0,85,0.00,,,0.00,WUHU216HW,2013-06-20 11:25:00,
2013-06-20 07:30:00,48.2,43.9,30.03,North,0,0.0,0.0,85,0.00,,,0.00,WUHU216HW,2013-06-20 11:30:00,
2013-06-20 07:35:00,48.4,44.1,30.04,North,0,0.0,0.0,85,0.00,,,0.00,WUHU216HW,2013-06-20 11:35:00,
2013-06-20 07:40:00,48.4,44.1,30.04,North,0,0.0,0.0,85,0.00,,,0.00,WUHU216HW,2013-06-20 11:40:00,
2013-06-20 08:00:00,50.8,46.6,30.04,North,0,0.0,0.0,86,0.00,,,0.00,WUHU216HW,2013-06-20 12:00:00,
2013-06-20 08:05:00,51.7,47.3,30.04,North,0,0.0,0.0,85,0.00,,,0.00,WUHU216HW,2013-06-20 12:05:00,
2013-06-20 08:10:00,52.6,47.9,30.04,North,0,0.0,0.0,84,0.00,,,0.00,WUHU216HW,2013-06-20 12:10:00,
2013-06-20 08:15:00,53.5,48.4,30.04,North,0,0.0,0.0,83,0.00,,,0.00,WUHU216HW,2013-06-20 12:15:00,
2013-06-20 08:20:00,54.0,48.6,30.04,North,0,0.0,0.0,82,0.00,,,0.00,WUHU216HW,2013-06-20 12:20:00,
2013-06-20 08:25:00,54.9,49.5,30.04,North,0,0.0,0.0,82,0.00,,,0.00,WUHU216HW,2013-06-20 12:25:00,
2013-06-20 08:30:00,55.8,50.1,30.04,North,0,0.0,0.0,81,0.00,,,0.00,WUHU216HW,2013-06-20 12:30:00,
2013-06-20 08:35:00,56.5,50.4,30.04,North,0,0.0,0.0,80,0.00,,,0.00,WUHU216HW,2013-06-20 12:35:00,
2013-06-20 08:40:00,57.2,50.8,30.04,North,0,0.0,0.0,79,0.00,,,0.00,WUHU216HW,2013-06-20 12:40:00,
2013-06-20 08:45:00,58.0,51.1,30.04,North,0,0.0,0.0,78,0.00,,,0.00,WUHU216HW,2013-06-20 12:45:00,
2013-06-20 08:50:00,58.9,52.0,30.04,North,0,0.0,0.0,78,0.00,,,0.00,WUHU216HW,2013-06-20 12:50:00,
2013-06-20 08:55:00,59.8,52.6,30.04,North,0,0.0,0.0,77,0.00,,,0.00,WUHU216HW,2013-06-20 12:55:00,
2013-06-20 09:01:00,60.5,52.6,30.04,North,0,0.0,0.0,75,0.00,,,0.00,WUHU216HW,2013-06-20 13:01:00,
2013-06-20 09:06:00,60.5,52.6,30.04,North,0,0.0,0.0,75,0.00,,,0.00,WUHU216HW,2013-06-20 13:06:00,
2013-06-20 10:00:00,68.9,56.3,30.02,North,0,0.0,0.0,64,0.00,,,0.00,WUHU216HW,2013-06-20 14:00:00,
2013-06-20 10:05:00,69.5,56.4,30.03,North,0,0.0,0.0,63,0.00,,,0.00,WUHU216HW,2013-06-20 14:05:00,
2013-06-20 10:10:00,69.8,55.9,30.02,North,0,0.0,0.0,61,0.00,,,0.00,WUHU216HW,2013-06-20 14:10:00,
2013-06-20 10:15:00,70.4,56.3,30.02,North,0,0.0,0.0,61,0.00,,,0.00,WUHU216HW,2013-06-20 14:15:00,
2013-06-20 10:20:00,70.9,55.9,30.02,North,0,0.0,0.0,59,0.00,,,0.00,WUHU216HW,2013-06-20 14:20:00,
2013-06-20 10:25:00,70.9,56.9,30.02,North,0,0.0,0.0,61,0.00,,,0.00,WUHU216HW,2013-06-20 14:25:00,
2013-06-20 10:30:00,72.2,58.0,30.02,North,0,0.0,0.0,61,0.00,,,0.00,WUHU216HW,2013-06-20 14:30:00,
2013-06-20 10:35:00,73.1,56.3,30.02,North,0,0.0,0.0,56,0.00,,,0.00,WUHU216HW,2013-06-20 14:35:00,
2013-06-20 10:40:00,73.8,56.5,30.02,North,0,0.0,0.0,55,0.00,,,0.00,WUHU216HW,2013-06-20 14:40:00,
2013-06-20 10:45:00,74.0,56.7,30.02,North,0,0.0,0.0,55,0.00,,,0.00,WUHU216HW,2013-06-20 14:45:00,
2013-06-20 10:50:00,74.5,55.7,30.02,North,0,0.0,0.0,52,0.00,,,0.00,WUHU216HW,2013-06-20 14:50:00,
2013-06-20 10:55:00,74.7,55.9,30.02,North,0,0.0,0.0,52,0.00,,,0.00,WUHU216HW,2013-06-20 14:55:00,
2013-06-20 11:00:00,75.1,55.8,30.02,North,0,0.0,0.0,51,0.00,,,0.00,WUHU216HW,2013-06-20 15:00:00,
2013-06-20 11:05:00,75.1,55.3,30.02,North,0,0.0,0.0,50,0.00,,,0.00,WUHU216HW,2013-06-20 15:05:00,
2013-06-20 11:10:00,75.1,55.3,30.02,North,0,0.0,0.0,50,0.00,,,0.00,WUHU216HW,2013-06-20 15:10:00,
2013-06-20 11:15:00,75.4,55.6,30.02,North,0,0.0,0.0,50,0.00,,,0.00,WUHU216HW,2013-06-20 15:15:00,
2013-06-20 11:20:00,75.6,55.2,30.02,North,0,0.0,0.0,49,0.00,,,0.00,WUHU216HW,2013-06-20 15:20:00,
2013-06-20 11:25:00,76.0,56.1,30.01,North,0,0.0,0.0,50,0.00,,,0.00,WUHU216HW,2013-06-20 15:25:00,
2013-06-20 11:30:00,76.5,55.4,30.01,North,0,0.0,0.0,48,0.00,,,0.00,WUHU216HW,2013-06-20 15:30:00,
2013-06-20 11:35:00,76.5,56.0,30.02,North,0,0.0,0.0,49,0.00,,,0.00,WUHU216HW,2013-06-20 15:35:00,
2013-06-20 11:40:00,76.5,56.0,30.02,North,0,0.0,0.0,49,0.00,,,0.00,WUHU216HW,2013-06-20 15:40:00,
2013-06-20 12:00:00,78.5,56.5,30.01,North,0,0.0,0.0,47,0.00,,,0.00,WUHU216HW,2013-06-20 16:00:00,
2013-06-20 12:05:00,78.3,55.2,30.01,North,0,0.0,0.0,45,0.00,,,0.00,WUHU216HW,2013-06-20 16:05:00,
2013-06-20 12:10:00,78.5,55.9,30.02,North,0,0.0,0.0,46,0.00,,,0.00,WUHU216HW,2013-06-20 16:10:00,
2013-06-20 12:15:00,78.8,56.3,30.01,North,0,0.0,0.0,46,0.00,,,0.00,WUHU216HW,2013-06-20 16:15:00,
2013-06-20 12:20:00,79.0,54.5,30.01,North,0,0.0,0.0,43,0.00,,,0.00,WUHU216HW,2013-06-20 16:20:00,
2013-06-20 12:25:00,79.6,56.9,30.01,North,0,0.0,0.0,46,0.00,,,0.00,WUHU216HW,2013-06-20 16:25:00,
2013-06-20 12:30:00,79.7,55.8,30.01,North,0,0.0,0.0,44,0.00,,,0.00,WUHU216HW,2013-06-20 16:30:00,
2013-06-20 12:35:00,79.6,56.9,30.01,North,0,0.0,0.0,46,0.00,,,0.00,WUHU216HW,2013-06-20 16:35:00,
2013-06-20 12:40:00,79.4,54.3,30.01,North,0,0.0,0.0,42,0.00,,,0.00,WUHU216HW,2013-06-20 16:40:00,
2013-06-20 12:45:00,79.2,54.1,30.00,North,0,0.0,0.0,42,0.00,,,0.00,WUHU216HW,2013-06-20 16:45:00,
2013-06-20 12:50:00,79.7,55.2,30.00,North,0,0.0,0.0,43,0.00,,,0.00,WUHU216HW,2013-06-20 16:50:00,
2013-06-20 12:55:00,80.1,54.9,30.00,North,0,0.0,0.0,42,0.00,,,0.00,WUHU216HW,2013-06-20 16:55:00,
2013-06-20 13:00:00,80.3,55.7,30.00,North,0,0.0,0.0,43,0.00,,,0.00,WUHU216HW,2013-06-20 17:00:00,
2013-06-20 13:05:00,80.6,56.0,30.00,North,0,0.0,0.0,43,0.00,,,0.00,WUHU216HW,2013-06-20 17:05:00,
2013-06-20 13:10:00,81.0,56.3,30.00,North,0,0.0,0.0,43,0.00,,,0.00,WUHU216HW,2013-06-20 17:10:00,
2013-06-20 13:15:00,81.4,57.2,30.00,North,0,0.0,0.0,44,0.00,,,0.00,WUHU216HW,2013-06-20 17:15:00,
2013-06-20 13:20:00,81.7,56.3,30.00,North,0,0.0,0.0,42,0.00,,,0.00,WUHU216HW,2013-06-20 17:20:00,
2013-06-20 13:25:00,81.9,56.5,30.00,North,0,0.0,0.0,42,0.00,,,0.00,WUHU216HW,2013-06-20 17:25:00,
2013-06-20 13:31:00,81.9,56.5,29.99,North,0,0.0,0.0,42,0.00,,,0.00,WUHU216HW,2013-06-20 17:31:00,
2013-06-20 13:36:00,81.5,55.6,29.99,North,0,0.0,0.0,41,0.00,,,0.00,WUHU216HW,2013-06-20 17:36:00,
2013-06-20 13:41:00,81.4,56.7,29.99,North,0,0.0,0.0,43,0.00,,,0.00,WUHU216HW,2013-06-20 17:41:00,
2013-06-20 13:46:00,81.5,57.4,29.99,North,0,0.0,0.0,44,0.00,,,0.00,WUHU216HW,2013-06-20 17:46:00,
2013-06-20 13:51:00,81.5,56.8,29.99,North,0,0.0,0.0,43,0.00,,,0.00,WUHU216HW,2013-06-20 17:51:00,
2013-06-20 13:56:00,81.5,56.3,29.99,North,0,0.0,0.0,42,0.00,,,0.00,WUHU216HW,2013-06-20 17:56:00,
2013-06-20 14:01:00,81.7,55.8,29.99,North,0,0.0,0.0,41,0.00,,,0.00,WUHU216HW,2013-06-20 18:01:00,
2013-06-20 14:06:00,81.7,56.3,29.99,North,0,0.0,0.0,42,0.00,,,0.00,WUHU216HW,2013-06-20 18:06:00,
2013-06-20 14:11:00,82.4,56.4,29.99,North,0,0.0,0.0,41,0.00,,,0.00,WUHU216HW,2013-06-20 18:11:00,
2013-06-20 14:16:00,82.6,57.2,29.99,North,0,0.0,0.0,42,0.00,,,0.00,WUHU216HW,2013-06-20 18:16:00,
2013-06-20 14:21:00,82.8,56.7,29.99,North,0,0.0,0.0,41,0.00,,,0.00,WUHU216HW,2013-06-20 18:21:00,
2013-06-20 14:26:00,82.8,56.2,29.98,North,0,0.0,0.0,40,0.00,,,0.00,WUHU216HW,2013-06-20 18:26:00,
2013-06-20 14:31:00,82.8,56.7,29.98,North,0,0.0,0.0,41,0.00,,,0.00,WUHU216HW,2013-06-20 18:31:00,
2013-06-20 14:36:00,82.4,56.4,29.98,North,0,0.0,0.0,41,0.00,,,0.00,WUHU216HW,2013-06-20 18:36:00,
2013-06-20 14:41:00,82.4,57.1,29.98,North,0,0.0,0.0,42,0.00,,,0.00,WUHU216HW,2013-06-20 18:41:00,
2013-06-20 14:46:00,82.4,56.4,29.98,North,0,0.0,0.0,41,0.00,,,0.00,WUHU216HW,2013-06-20 18:46:00,
2013-06-20 14:51:00,82.8,56.7,29.98,North,0,0.0,0.0,41,0.00,,,0.00,WUHU216HW,2013-06-20 18:51:00,
2013-06-20 14:56:00,82.8,57.3,29.99,North,0,0.0,0.0,42,0.00,,,0.00,WUHU216HW,2013-06-20 18:56:00,
2013-06-20 15:01:00,82.6,56.6,29.99,North,0,0.0,0.0,41,0.00,,,0.00,WUHU216HW,2013-06-20 19:01:00,
2013-06-20 15:06:00,82.8,56.2,29.99,North,0,0.0,0.0,40,0.00,,,0.00,WUHU216HW,2013-06-20 19:06:00,
2013-06-20 15:11:00,83.0,55.5,29.98,North,0,0.0,0.0,39,0.00,,,0.00,WUHU216HW,2013-06-20 19:11:00,
2013-06-20 15:16:00,82.8,56.7,29.98,North,0,0.0,0.0,41,0.00,,,0.00,WUHU216HW,2013-06-20 19:16:00,
2013-06-20 15:21:00,83.2,57.7,29.98,North,0,0.0,0.0,42,0.00,,,0.00,WUHU216HW,2013-06-20 19:21:00,
2013-06-20 15:26:00,83.5,58.1,29.98,North,0,0.0,0.0,42,0.00,,,0.00,WUHU216HW,2013-06-20 19:26:00,
2013-06-20 15:31:00,83.9,57.7,29.98,North,0,0.0,0.0,41,0.00,,,0.00,WUHU216HW,2013-06-20 19:31:00,
2013-06-20 15:36:00,83.9,57.7,29.98,North,0,0.0,0.0,41,0.00,,,0.00,WUHU216HW,2013-06-20 19:36:00,
2013-06-20 15:41:00,83.9,57.7,29.98,North,0,0.0,0.0,41,0.00,,,0.00,WUHU216HW,2013-06-20 19:41:00,
2013-06-20 16:00:00,83.2,56.4,29.97,North,0,0.0,0.0,40,0.00,,,0.00,WUHU216HW,2013-06-20 20:00:00,
2013-06-20 16:05:00,82.8,55.4,29.97,North,0,0.0,0.0,39,0.00,,,0.00,WUHU216HW,2013-06-20 20:05:00,
2013-06-20 16:10:00,82.8,56.7,29.98,North,0,0.0,0.0,41,0.00,,,0.00,WUHU216HW,2013-06-20 20:10:00,
2013-06-20 16:15:00,83.0,56.9,29.97,North,0,0.0,0.0,41,0.00,,,0.00,WUHU216HW,2013-06-20 20:15:00,
2013-06-20 16:20:00,83.3,56.6,29.97,North,0,0.0,0.0,40,0.00,,,0.00,WUHU216HW,2013-06-20 20:20:00,
2013-06-20 16:25:00,83.9,57.7,29.97,North,0,0.0,0.0,41,0.00,,,0.00,WUHU216HW,2013-06-20 20:25:00,
2013-06-20 16:30:00,84.1,56.4,29.97,North,0,0.0,0.0,39,0.00,,,0.00,WUHU216HW,2013-06-20 20:30:00,
2013-06-20 16:35:00,83.9,56.4,29.97,North,0,0.0,0.0,39,0.00,,,0.00,WUHU216HW,2013-06-20 20:35:00,
2013-06-20 16:40:00,83.7,56.2,29.97,North,0,0.0,0.0,39,0.00,,,0.00,WUHU216HW,2013-06-20 20:40:00,
2013-06-20 16:45:00,83.2,56.4,29.97,North,0,0.0,0.0,40,0.00,,,0.00,WUHU216HW,2013-06-20 20:45:00,
2013-06-20 16:50:00,83.2,57.1,29.97,North,0,0.0,0.0,41,0.00,,,0.00,WUHU216HW,2013-06-20 20:50:00,
2013-06-20 16:55:00,82.8,52.2,29.97,North,0,0.0,0.0,35,0.00,,,0.00,WUHU216HW,2013-06-20 20:55:00,
2013-06-20 17:00:00,83.0,53.9,29.97,North,0,0.0,0.0,37,0.00,,,0.00,WUHU216HW,2013-06-20 21:00:00,
2013-06-20 17:05:00,83.2,54.1,29.97,North,0,0.0,0.0,37,0.00,,,0.00,WUHU216HW,2013-06-20 21:05:00,
2013-06-20 17:10:00,82.3,54.1,29.97,North,0,0.0,0.0,38,0.00,,,0.00,WUHU216HW,2013-06-20 21:10:00,
2013-06-20 17:15:00,82.1,53.9,29.97,North,0,0.0,0.0,38,0.00,,,0.00,WUHU216HW,2013-06-20 21:15:00,
2013-06-20 17:20:00,81.7,51.2,29.97,North,0,0.0,0.0,35,0.00,,,0.00,WUHU216HW,2013-06-20 21:20:00,
2013-06-20 17:25:00,81.4,51.0,29.97,North,0,0.0,0.0,35,0.00,,,0.00,WUHU216HW,2013-06-20 21:25:00,
2013-06-20 17:30:00,81.2,49.2,29.97,North,0,0.0,0.0,33,0.00,,,0.00,WUHU216HW,2013-06-20 21:30:00,
2013-06-20 17:35:00,81.0,47.5,29.97,North,0,0.0,0.0,31,0.00,,,0.00,WUHU216HW,2013-06-20 21:35:00,
2013-06-20 17:40:00,81.0,47.5,29.97,North,0,0.0,0.0,31,0.00,,,0.00,WUHU216HW,2013-06-20 21:40:00,
2013-06-20 18:00:00,78.5,46.1,29.98,North,0,0.0,0.0,32,0.00,,,0.00,WUHU216HW,2013-06-20 22:00:00,
2013-06-20 18:05:00,78.1,45.8,29.98,North,0,0.0,0.0,32,0.00,,,0.00,WUHU216HW,2013-06-20 22:05:00,
2013-06-20 18:10:00,77.8,45.5,29.98,North,0,0.0,0.0,32,0.00,,,0.00,WUHU216HW,2013-06-20 22:10:00,
2013-06-20 18:15:00,77.0,44.1,29.98,North,0,0.0,0.0,31,0.00,,,0.00,WUHU216HW,2013-06-20 22:15:00,
2013-06-20 18:20:00,77.0,44.9,29.98,North,0,0.0,0.0,32,0.00,,,0.00,WUHU216HW,2013-06-20 22:20:00,
2013-06-20 18:25:00,76.7,45.4,29.98,North,0,0.0,0.0,33,0.00,,,0.00,WUHU216HW,2013-06-20 22:25:00,
2013-06-20 18:30:00,76.3,45.0,29.98,North,0,0.0,0.0,33,0.00,,,0.00,WUHU216HW,2013-06-20 22:30:00,
2013-06-20 18:35:00,76.1,44.8,29.98,North,0,0.0,0.0,33,0.00,,,0.00,WUHU216HW,2013-06-20 22:35:00,
2013-06-20 18:40:00,76.1,44.8,29.98,North,0,0.0,0.0,33,0.00,,,0.00,WUHU216HW,2013-06-20 22:40:00,
2013-06-20 19:00:00,74.7,46.5,29.98,North,0,0.0,0.0,37,0.00,,,0.00,WUHU216HW,2013-06-20 23:00:00,
2013-06-20 19:05:00,74.5,47.2,29.98,North,0,0.0,0.0,38,0.00,,,0.00,WUHU216HW,2013-06-20 23:05:00,
2013-06-20 19:10:00,74.2,47.6,29.99,North,0,0.0,0.0,39,0.00,,,0.00,WUHU216HW,2013-06-20 23:10:00,
2013-06-20 19:15:00,74.0,47.4,29.99,North,0,0.0,0.0,39,0.00,,,0.00,WUHU216HW,2013-06-20 23:15:00,
2013-06-20 19:20:00,73.8,48.1,29.99,North,0,0.0,0.0,40,0.00,,,0.00,WUHU216HW,2013-06-20 23:20:00,
2013-06-20 19:25:00,73.4,47.7,29.99,North,0,0.0,0.0,40,0.00,,,0.00,WUHU216HW,2013-06-20 23:25:00,
2013-06-20 19:30:00,73.3,47.5,29.99,North,0,0.0,0.0,40,0.00,,,0.00,WUHU216HW,2013-06-20 23:30:00,
2013-06-20 19:35:00,73.1,47.3,29.99,North,0,0.0,0.0,40,0.00,,,0.00,WUHU216HW,2013-06-20 23:35:00,
2013-06-20 19:40:00,73.1,47.3,29.99,North,0,0.0,0.0,40,0.00,,,0.00,WUHU216HW,2013-06-20 23:40:00,
2013-06-20 20:00:00,71.6,48.4,29.99,North,0,0.0,0.0,44,0.00,,,0.00,WUHU216HW,2013-06-21 00:00:00,
2013-06-20 20:05:00,71.3,48.7,29.99,North,0,0.0,0.0,45,0.00,,,0.00,WUHU216HW,2013-06-21 00:05:00,
2013-06-20 20:10:00,70.9,49.0,29.99,North,0,0.0,0.0,46,0.00,,,0.00,WUHU216HW,2013-06-21 00:10:00,
2013-06-20 20:15:00,70.4,49.7,29.99,North,0,0.0,0.0,48,0.00,,,0.00,WUHU216HW,2013-06-21 00:15:00,
2013-06-20 20:20:00,69.8,49.2,29.99,North,0,0.0,0.0,48,0.00,,,0.00,WUHU216HW,2013-06-21 00:20:00,
2013-06-20 20:25:00,69.5,48.9,29.99,North,0,0.0,0.0,48,0.00,,,0.00,WUHU216HW,2013-06-21 00:25:00,
2013-06-20 20:30:00,69.1,48.6,29.99,North,0,0.0,0.0,48,0.00,,,0.00,WUHU216HW,2013-06-21 00:30:00,
2013-06-20 20:35:00,68.9,48.4,29.99,North,0,0.0,0.0,48,0.00,,,0.00,WUHU216HW,2013-06-21 00:35:00,
2013-06-20 20:40:00,68.9,48.4,29.99,North,0,0.0,0.0,48,0.00,,,0.00,WUHU216HW,2013-06-21 00:40:00,
2013-06-20 21:00:00,67.1,48.4,30.00,North,0,0.0,0.0,51,0.00,,,0.00,WUHU216HW,2013-06-21 01:00:00,
2013-06-20 21:05:00,66.6,48.4,30.00,North,0,0.0,0.0,52,0.00,,,0.00,WUHU216HW,2013-06-21 01:05:00,
2013-06-20 21:10:00,66.2,48.6,30.00,North,0,0.0,0.0,53,0.00,,,0.00,WUHU216HW,2013-06-21 01:10:00,
2013-06-20 21:15:00,65.9,48.8,30.00,North,0,0.0,0.0,54,0.00,,,0.00,WUHU216HW,2013-06-21 01:15:00,
2013-06-20 21:20:00,65.5,48.4,30.00,North,0,0.0,0.0,54,0.00,,,0.00,WUHU216HW,2013-06-21 01:20:00,
2013-06-20 21:25:00,65.2,48.1,30.00,North,0,0.0,0.0,54,0.00,,,0.00,WUHU216HW,2013-06-21 01:25:00,
2013-06-20 21:30:00,64.8,48.2,30.00,North,0,0.0,0.0,55,0.00,,,0.00,WUHU216HW,2013-06-21 01:30:00,
2013-06-20 21:35:00,64.4,47.8,30.00,North,0,0.0,0.0,55,0.00,,,0.00,WUHU216HW,2013-06-21 01:35:00,
2013-06-20 21:40:00,64.1,48.0,30.00,North,0,0.0,0.0,56,0.00,,,0.00,WUHU216HW,2013-06-21 01:40:00,
2013-06-20 21:45:00,63.7,48.2,30.01,North,0,0.0,0.0,57,0.00,,,0.00,WUHU216HW,2013-06-21 01:45:00,
2013-06-20 21:50:00,63.5,48.4,30.01,North,0,0.0,0.0,58,0.00,,,0.00,WUHU216HW,2013-06-21 01:50:00,
2013-06-20 21:55:00,63.2,48.6,30.01,North,0,0.0,0.0,59,0.00,,,0.00,WUHU216HW,2013-06-21 01:55:00,
2013-06-20 22:00:00,63.0,48.4,30.01,North,0,0.0,0.0,59,0.00,,,0.00,WUHU216HW,2013-06-21 02:00:00,
2013-06-20 22:05:00,62.6,48.6,30.01,North,0,0.0,0.0,60,0.00,,,0.00,WUHU216HW,2013-06-21 02:05:00,
2013-06-20 22:10:00,62.3,48.7,30.01,North,0,0.0,0.0,61,0.00,,,0.00,WUHU216HW,2013-06-21 02:10:00,
2013-06-20 22:15:00,62.1,49.0,30.00,North,0,0.0,0.0,62,0.00,,,0.00,WUHU216HW,2013-06-21 02:15:00,
2013-06-20 22:20:00,61.7,48.6,30.00,North,0,0.0,0.0,62,0.00,,,0.00,WUHU216HW,2013-06-21 02:20:00,
2013-06-20 22:25:00,61.6,48.4,30.00,North,0,0.0,0.0,62,0.00,,,0.00,WUHU216HW,2013-06-21 02:25:00,
2013-06-20 22:30:00,61.2,48.5,30.00,North,0,0.0,0.0,63,0.00,,,0.00,WUHU216HW,2013-06-21 02:30:00,
2013-06-20 22:35:00,61.0,48.8,30.00,North,0,0.0,0.0,64,0.00,,,0.00,WUHU216HW,2013-06-21 02:35:00,
2013-06-20 22:40:00,60.8,48.6,30.00,North,0,0.0,0.0,64,0.00,,,0.00,WUHU216HW,2013-06-21 02:40:00,
2013-06-20 22:45:00,60.5,48.7,30.00,North,0,0.0,0.0,65,0.00,,,0.00,WUHU216HW,2013-06-21 02:45:00,
2013-06-20 22:50:00,59.9,47.7,30.00,North,0,0.0,0.0,64,0.00,,,0.00,WUHU216HW,2013-06-21 02:50:00,
2013-06-20 22:56:00,59.8,47.5,30.00,North,0,0.0,0.0,64,0.00,,,0.00,WUHU216HW,2013-06-21 02:56:00,
2013-06-20 23:01:00,59.6,47.8,30.00,North,0,0.0,0.0,65,0.00,,,0.00,WUHU216HW,2013-06-21 03:01:00,
2013-06-20 23:06:00,59.2,47.9,30.01,North,0,0.0,0.0,66,0.00,,,0.00,WUHU216HW,2013-06-21 03:06:00,
2013-06-20 23:11:00,58.9,47.5,30.01,North,0,0.0,0.0,66,0.00,,,0.00,WUHU216HW,2013-06-21 03:11:00,
2013-06-20 23:16:00,58.7,47.7,30.00,North,0,0.0,0.0,67,0.00,,,0.00,WUHU216HW,2013-06-21 03:16:00,
2013-06-20 23:21:00,58.5,47.5,30.01,North,0,0.0,0.0,67,0.00,,,0.00,WUHU216HW,2013-06-21 03:21:00,
2013-06-20 23:26:00,58.3,47.8,30.00,North,0,0.0,0.0,68,0.00,,,0.00,WUHU216HW,2013-06-21 03:26:00,
2013-06-20 23:31:00,58.3,47.8,30.01,North,0,0.0,0.0,68,0.00,,,0.00,WUHU216HW,2013-06-21 03:31:00,
2013-06-20 23:36:00,58.0,47.9,30.02,North,0,0.0,0.0,69,0.00,,,0.00,WUHU216HW,2013-06-21 03:36:00,
2013-06-20 23:41:00,58.0,47.9,30.02,North,0,0.0,0.0,69,0.00,,,0.00,WUHU216HW,2013-06-21 03:41:00,
2013-06-20 23:46:00,57.6,47.9,30.02,North,0,0.0,0.0,70,0.00,,,0.00,WUHU216HW,2013-06-21 03:46:00,
2013-06-20 23:51:00,57.6,47.9,30.02,North,0,0.0,0.0,70,0.00,,,0.00,WUHU216HW,2013-06-21 03:51:00,
2013-06-20 23:56:00,57.4,47.7,30.02,North,0,0.0,0.0,70,0.00,,,0.00,WUHU216HW,2013-06-21 03:56:00,